sensor_id;sensor_type;location;lat;lon;timestamp;pressure;altitude;pressure_sealevel;temperature;humidity
56912;BME280;42800;53.928;27.662;2023-10-13T00:01:01;99081.03;;;8.46;100.00
56912;BME280;42800;53.928;27.662;2023-10-13T00:03:30;99067.78;;;8.32;100.00
56912;BME280;42800;53.928;27.662;2023-10-13T00:05:57;99066.94;;;8.44;100.00
56912;BME280;42800;53.928;27.662;2023-10-13T00:08:26;99048.56;;;8.13;100.00
56912;BME280;42800;53.928;27.662;2023-10-13T00:10:54;99013.72;;;8.38;100.00
56912;BME280;42800;53.928;27.662;2023-10-13T00:13:26;99034.59;;;8.30;100.00
56912;BME280;42800;53.928;27.662;2023-10-13T00:15:52;99020.03;;;8.26;100.00
56912;BME280;42800;53.928;27.662;2023-10-13T00:18:23;99030.06;;;8.22;100.00
56912;BME280;42800;53.928;27.662;2023-10-13T00:20:49;99014.31;;;8.31;100.00
56912;BME280;42800;53.928;27.662;2023-10-13T00:23:15;99012.66;;;8.27;100.00
56912;BME280;42800;53.928;27.662;2023-10-13T00:25:46;99006.97;;;8.19;100.00
56912;BME280;42800;53.928;27.662;2023-10-13T00:28:15;99003.38;;;8.31;100.00
56912;BME280;42800;53.928;27.662;2023-10-13T00:30:49;99010.44;;;8.16;100.00
56912;BME280;42800;53.928;27.662;2023-10-13T00:33:17;99007.78;;;8.04;100.00
56912;BME280;42800;53.928;27.662;2023-10-13T00:35:45;98987.16;;;8.22;100.00
56912;BME280;42800;53.928;27.662;2023-10-13T00:38:13;99009.72;;;7.88;100.00
56912;BME280;42800;53.928;27.662;2023-10-13T00:40:40;98978.72;;;8.12;100.00
56912;BME280;42800;53.928;27.662;2023-10-13T00:43:10;98979.34;;;8.21;100.00
56912;BME280;42800;53.928;27.662;2023-10-13T00:46:01;98986.81;;;8.24;100.00
56912;BME280;42800;53.928;27.662;2023-10-13T00:48:35;98984.34;;;8.19;100.00
56912;BME280;42800;53.928;27.662;2023-10-13T00:51:10;98988.41;;;8.25;100.00
56912;BME280;42800;53.928;27.662;2023-10-13T00:53:45;98985.88;;;8.16;100.00
56912;BME280;42800;53.928;27.662;2023-10-13T00:56:13;98975.03;;;8.04;100.00
56912;BME280;42800;53.928;27.662;2023-10-13T00:58:52;98963.50;;;7.95;100.00
56912;BME280;42800;53.928;27.662;2023-10-13T01:01:18;98968.16;;;8.10;100.00
56912;BME280;42800;53.928;27.662;2023-10-13T01:03:47;98968.09;;;8.07;100.00
56912;BME280;42800;53.928;27.662;2023-10-13T01:06:15;98957.16;;;8.07;100.00
56912;BME280;42800;53.928;27.662;2023-10-13T01:08:42;98967.88;;;8.31;100.00
56912;BME280;42800;53.928;27.662;2023-10-13T01:11:10;98996.06;;;8.19;100.00
56912;BME280;42800;53.928;27.662;2023-10-13T01:13:37;99007.94;;;7.95;100.00
56912;BME280;42800;53.928;27.662;2023-10-13T01:16:03;99003.88;;;7.89;100.00
56912;BME280;42800;53.928;27.662;2023-10-13T01:18:29;98997.03;;;7.95;100.00
56912;BME280;42800;53.928;27.662;2023-10-13T01:20:55;98981.28;;;8.05;100.00
56912;BME280;42800;53.928;27.662;2023-10-13T01:23:25;98962.41;;;7.99;100.00
56912;BME280;42800;53.928;27.662;2023-10-13T01:25:54;98983.47;;;7.83;100.00
56912;BME280;42800;53.928;27.662;2023-10-13T01:28:21;98984.09;;;7.92;100.00
56912;BME280;42800;53.928;27.662;2023-10-13T01:30:47;98981.81;;;8.10;100.00
56912;BME280;42800;53.928;27.662;2023-10-13T01:33:16;98973.00;;;8.01;100.00
56912;BME280;42800;53.928;27.662;2023-10-13T01:35:41;98966.81;;;7.88;100.00
56912;BME280;42800;53.928;27.662;2023-10-13T01:38:13;98985.25;;;8.07;100.00
56912;BME280;42800;53.928;27.662;2023-10-13T01:40:39;99002.06;;;7.93;100.00
56912;BME280;42800;53.928;27.662;2023-10-13T01:43:05;98995.97;;;7.84;100.00
56912;BME280;42800;53.928;27.662;2023-10-13T01:45:36;99002.06;;;7.93;100.00
56912;BME280;42800;53.928;27.662;2023-10-13T01:48:05;99007.53;;;7.93;100.00
56912;BME280;42800;53.928;27.662;2023-10-13T01:50:35;99001.63;;;7.91;100.00
56912;BME280;42800;53.928;27.662;2023-10-13T01:53:01;99008.28;;;7.78;100.00
56912;BME280;42800;53.928;27.662;2023-10-13T01:55:38;99004.69;;;7.74;100.00
56912;BME280;42800;53.928;27.662;2023-10-13T01:58:09;99027.66;;;7.89;100.00
56912;BME280;42800;53.928;27.662;2023-10-13T02:00:40;99034.53;;;7.83;100.00
56912;BME280;42800;53.928;27.662;2023-10-13T02:03:08;99024.78;;;7.53;100.00
56912;BME280;42800;53.928;27.662;2023-10-13T02:05:40;99013.88;;;7.53;100.00
56912;BME280;42800;53.928;27.662;2023-10-13T02:08:09;99003.88;;;7.73;100.00
56912;BME280;42800;53.928;27.662;2023-10-13T02:10:35;99006.38;;;7.50;100.00
56912;BME280;42800;53.928;27.662;2023-10-13T02:13:12;99019.38;;;7.41;100.00
56912;BME280;42800;53.928;27.662;2023-10-13T02:15:42;99010.13;;;7.30;100.00
56912;BME280;42800;53.928;27.662;2023-10-13T02:18:10;98989.19;;;7.34;100.00
56912;BME280;42800;53.928;27.662;2023-10-13T02:20:36;98980.31;;;7.53;100.00
56912;BME280;42800;53.928;27.662;2023-10-13T02:23:09;98973.28;;;7.52;100.00
56912;BME280;42800;53.928;27.662;2023-10-13T02:25:36;98993.69;;;7.42;100.00
56912;BME280;42800;53.928;27.662;2023-10-13T02:28:09;98974.69;;;7.46;100.00
56912;BME280;42800;53.928;27.662;2023-10-13T02:30:37;98980.09;;;7.58;100.00
56912;BME280;42800;53.928;27.662;2023-10-13T02:33:04;98989.50;;;7.32;100.00
56912;BME280;42800;53.928;27.662;2023-10-13T02:35:31;98972.88;;;7.50;100.00
56912;BME280;42800;53.928;27.662;2023-10-13T02:38:16;98976.31;;;7.63;100.00
56912;BME280;42800;53.928;27.662;2023-10-13T02:40:51;98993.50;;;7.63;100.00
56912;BME280;42800;53.928;27.662;2023-10-13T02:43:20;99002.97;;;7.69;100.00
56912;BME280;42800;53.928;27.662;2023-10-13T02:45:51;99027.53;;;7.53;100.00
56912;BME280;42800;53.928;27.662;2023-10-13T02:48:23;99016.75;;;7.45;100.00
56912;BME280;42800;53.928;27.662;2023-10-13T02:50:57;99004.03;;;7.65;100.00
56912;BME280;42800;53.928;27.662;2023-10-13T02:53:23;99007.81;;;7.60;100.00
56912;BME280;42800;53.928;27.662;2023-10-13T02:55:50;99014.94;;;7.65;100.00
56912;BME280;42800;53.928;27.662;2023-10-13T02:58:16;98999.03;;;7.83;100.00
56912;BME280;42800;53.928;27.662;2023-10-13T03:00:43;99009.63;;;7.84;100.00
56912;BME280;42800;53.928;27.662;2023-10-13T03:03:09;99027.31;;;7.74;100.00
56912;BME280;42800;53.928;27.662;2023-10-13T03:05:35;99043.75;;;7.78;100.00
56912;BME280;42800;53.928;27.662;2023-10-13T03:08:05;99053.84;;;7.90;100.00
56912;BME280;42800;53.928;27.662;2023-10-13T03:10:31;99057.28;;;8.02;100.00
56912;BME280;42800;53.928;27.662;2023-10-13T03:12:58;99074.09;;;8.05;100.00
56912;BME280;42800;53.928;27.662;2023-10-13T03:15:24;99098.72;;;7.92;100.00
56912;BME280;42800;53.928;27.662;2023-10-13T03:17:55;99105.56;;;7.86;100.00
56912;BME280;42800;53.928;27.662;2023-10-13T03:20:24;99110.47;;;8.09;100.00
56912;BME280;42800;53.928;27.662;2023-10-13T03:22:57;99124.69;;;8.14;100.00
56912;BME280;42800;53.928;27.662;2023-10-13T03:25:23;99139.75;;;7.80;100.00
56912;BME280;42800;53.928;27.662;2023-10-13T03:27:49;99134.81;;;7.86;100.00
56912;BME280;42800;53.928;27.662;2023-10-13T03:30:27;99133.94;;;8.25;100.00
56912;BME280;42800;53.928;27.662;2023-10-13T03:33:01;99156.38;;;8.03;100.00
56912;BME280;42800;53.928;27.662;2023-10-13T03:35:32;99154.13;;;8.21;100.00
56912;BME280;42800;53.928;27.662;2023-10-13T03:38:04;99173.50;;;8.32;100.00
56912;BME280;42800;53.928;27.662;2023-10-13T03:40:30;99188.91;;;7.96;100.00
56912;BME280;42800;53.928;27.662;2023-10-13T03:43:02;99177.25;;;8.11;100.00
56912;BME280;42800;53.928;27.662;2023-10-13T03:45:31;99187.38;;;8.11;100.00
56912;BME280;42800;53.928;27.662;2023-10-13T03:48:04;99202.03;;;7.90;100.00
56912;BME280;42800;53.928;27.662;2023-10-13T03:50:34;99202.19;;;8.10;100.00
56912;BME280;42800;53.928;27.662;2023-10-13T03:53:01;99193.88;;;7.78;100.00
56912;BME280;42800;53.928;27.662;2023-10-13T03:55:27;99185.16;;;8.00;100.00
56912;BME280;42800;53.928;27.662;2023-10-13T03:57:54;99195.28;;;8.00;100.00
56912;BME280;42800;53.928;27.662;2023-10-13T04:00:20;99207.22;;;7.95;100.00
56912;BME280;42800;53.928;27.662;2023-10-13T04:02:49;99206.22;;;7.88;100.00
56912;BME280;42800;53.928;27.662;2023-10-13T04:05:29;99196.22;;;7.79;100.00
56912;BME280;42800;53.928;27.662;2023-10-13T04:08:04;99196.03;;;7.72;100.00
56912;BME280;42800;53.928;27.662;2023-10-13T04:10:45;99168.75;;;7.72;100.00
56912;BME280;42800;53.928;27.662;2023-10-13T04:13:29;99170.84;;;7.91;100.00
56912;BME280;42800;53.928;27.662;2023-10-13T04:16:13;99188.22;;;7.99;100.00
56912;BME280;42800;53.928;27.662;2023-10-13T04:19:00;99203.91;;;8.02;100.00
56912;BME280;42800;53.928;27.662;2023-10-13T04:21:34;99228.47;;;8.02;100.00
56912;BME280;42800;53.928;27.662;2023-10-13T04:24:09;99233.63;;;7.91;100.00
56912;BME280;42800;53.928;27.662;2023-10-13T04:26:49;99233.53;;;7.88;100.00
56912;BME280;42800;53.928;27.662;2023-10-13T04:29:44;99218.59;;;7.97;100.00
56912;BME280;42800;53.928;27.662;2023-10-13T04:32:18;99230.69;;;7.84;100.00
56912;BME280;42800;53.928;27.662;2023-10-13T04:34:54;99229.25;;;7.74;100.00
56912;BME280;42800;53.928;27.662;2023-10-13T04:37:24;99237.22;;;8.08;100.00
56912;BME280;42800;53.928;27.662;2023-10-13T04:39:54;99248.28;;;7.99;100.00
56912;BME280;42800;53.928;27.662;2023-10-13T04:42:35;99257.22;;;8.12;100.00
56912;BME280;42800;53.928;27.662;2023-10-13T04:45:16;99272.25;;;8.18;100.00
56912;BME280;42800;53.928;27.662;2023-10-13T04:48:04;99289.19;;;8.23;100.00
56912;BME280;42800;53.928;27.662;2023-10-13T04:50:39;99300.44;;;8.22;100.00
56912;BME280;42800;53.928;27.662;2023-10-13T04:53:11;99303.38;;;8.29;100.00
56912;BME280;42800;53.928;27.662;2023-10-13T04:55:54;99300.41;;;8.34;100.00
56912;BME280;42800;53.928;27.662;2023-10-13T04:58:33;99314.50;;;8.48;100.00
56912;BME280;42800;53.928;27.662;2023-10-13T05:01:41;99331.16;;;8.43;100.00
56912;BME280;42800;53.928;27.662;2023-10-13T05:04:33;99344.13;;;8.46;100.00
56912;BME280;42800;53.928;27.662;2023-10-13T05:07:22;99354.31;;;8.62;100.00
56912;BME280;42800;53.928;27.662;2023-10-13T05:10:07;99362.97;;;8.64;100.00
56912;BME280;42800;53.928;27.662;2023-10-13T05:13:03;99373.63;;;8.69;100.00
56912;BME280;42800;53.928;27.662;2023-10-13T05:15:48;99386.41;;;8.65;100.00
56912;BME280;42800;53.928;27.662;2023-10-13T05:18:33;99397.75;;;8.79;100.00
56912;BME280;42800;53.928;27.662;2023-10-13T05:21:17;99400.34;;;8.88;100.00
56912;BME280;42800;53.928;27.662;2023-10-13T05:23:58;99402.28;;;8.87;100.00
56912;BME280;42800;53.928;27.662;2023-10-13T05:26:42;99411.28;;;8.88;100.00
56912;BME280;42800;53.928;27.662;2023-10-13T05:29:27;99422.88;;;8.97;100.00
56912;BME280;42800;53.928;27.662;2023-10-13T05:32:11;99430.59;;;9.07;100.00
56912;BME280;42800;53.928;27.662;2023-10-13T05:34:55;99437.22;;;9.22;100.00
56912;BME280;42800;53.928;27.662;2023-10-13T05:37:39;99440.72;;;9.35;100.00
56912;BME280;42800;53.928;27.662;2023-10-13T05:40:23;99432.56;;;9.82;100.00
56912;BME280;42800;53.928;27.662;2023-10-13T05:43:07;99423.63;;;9.54;100.00
56912;BME280;42800;53.928;27.662;2023-10-13T05:45:51;99402.69;;;9.46;100.00
56912;BME280;42800;53.928;27.662;2023-10-13T05:48:34;99384.34;;;9.62;100.00
56912;BME280;42800;53.928;27.662;2023-10-13T05:51:08;99349.91;;;9.77;100.00
56912;BME280;42800;53.928;27.662;2023-10-13T05:53:52;99310.41;;;9.78;100.00
56912;BME280;42800;53.928;27.662;2023-10-13T05:56:36;99255.38;;;10.38;100.00
56912;BME280;42800;53.928;27.662;2023-10-13T05:59:21;99190.13;;;10.43;100.00
56912;BME280;42800;53.928;27.662;2023-10-13T06:02:05;99118.19;;;10.50;100.00
56912;BME280;42800;53.928;27.662;2023-10-13T06:04:49;99055.88;;;10.47;100.00
56912;BME280;42800;53.928;27.662;2023-10-13T06:07:33;98971.53;;;10.90;100.00
56912;BME280;42800;53.928;27.662;2023-10-13T06:10:22;98792.16;;;11.87;100.00
56912;BME280;42800;53.928;27.662;2023-10-13T06:13:07;98479.06;;;12.01;100.00
56912;BME280;42800;53.928;27.662;2023-10-13T06:15:51;98309.75;;;12.64;100.00
56912;BME280;42800;53.928;27.662;2023-10-13T06:18:35;98119.19;;;13.19;100.00
56912;BME280;42800;53.928;27.662;2023-10-13T06:21:20;98112.19;;;13.87;100.00
56912;BME280;42800;53.928;27.662;2023-10-13T06:24:05;98166.75;;;14.30;100.00
56912;BME280;42800;53.928;27.662;2023-10-13T06:26:49;98232.09;;;14.67;100.00
56912;BME280;42800;53.928;27.662;2023-10-13T06:29:33;98310.97;;;14.92;100.00
56912;BME280;42800;53.928;27.662;2023-10-13T06:31:59;98334.72;;;15.16;100.00
56912;BME280;42800;53.928;27.662;2023-10-13T06:34:27;98396.03;;;15.00;100.00
56912;BME280;42800;53.928;27.662;2023-10-13T06:37:04;98372.63;;;15.39;100.00
56912;BME280;42800;53.928;27.662;2023-10-13T06:39:47;98426.38;;;15.62;100.00
56912;BME280;42800;53.928;27.662;2023-10-13T06:42:13;98445.53;;;15.45;100.00
56912;BME280;42800;53.928;27.662;2023-10-13T06:44:40;98484.53;;;15.20;100.00
56912;BME280;42800;53.928;27.662;2023-10-13T06:47:11;98485.22;;;15.28;100.00
56912;BME280;42800;53.928;27.662;2023-10-13T06:49:37;98513.56;;;15.32;100.00
56912;BME280;42800;53.928;27.662;2023-10-13T06:52:04;98503.47;;;14.80;100.00
56912;BME280;42800;53.928;27.662;2023-10-13T06:54:31;98505.75;;;15.27;100.00
56912;BME280;42800;53.928;27.662;2023-10-13T06:56:59;98538.06;;;15.64;100.00
56912;BME280;42800;53.928;27.662;2023-10-13T06:59:25;98562.25;;;15.87;100.00
56912;BME280;42800;53.928;27.662;2023-10-13T07:01:52;98564.78;;;16.05;100.00
56912;BME280;42800;53.928;27.662;2023-10-13T07:04:19;98613.56;;;16.46;100.00
56912;BME280;42800;53.928;27.662;2023-10-13T07:06:47;98637.84;;;16.62;100.00
56912;BME280;42800;53.928;27.662;2023-10-13T07:09:14;98643.34;;;16.92;100.00
56912;BME280;42800;53.928;27.662;2023-10-13T07:11:58;98668.13;;;17.27;100.00
56912;BME280;42800;53.928;27.662;2023-10-13T07:14:26;98677.50;;;16.82;100.00
56912;BME280;42800;53.928;27.662;2023-10-13T07:16:56;98671.13;;;16.85;100.00
56912;BME280;42800;53.928;27.662;2023-10-13T07:19:24;98690.28;;;16.76;100.00
56912;BME280;42800;53.928;27.662;2023-10-13T07:21:53;98700.59;;;16.99;100.00
56912;BME280;42800;53.928;27.662;2023-10-13T07:24:24;98695.91;;;16.96;100.00
56912;BME280;42800;53.928;27.662;2023-10-13T07:26:51;98715.91;;;17.07;100.00
56912;BME280;42800;53.928;27.662;2023-10-13T07:29:27;98729.34;;;17.56;100.00
56912;BME280;42800;53.928;27.662;2023-10-13T07:31:53;98726.50;;;17.36;100.00
56912;BME280;42800;53.928;27.662;2023-10-13T07:34:19;98724.47;;;17.16;100.00
56912;BME280;42800;53.928;27.662;2023-10-13T07:36:55;98735.13;;;17.41;100.00
56912;BME280;42800;53.928;27.662;2023-10-13T07:39:25;98741.13;;;17.63;100.00
56912;BME280;42800;53.928;27.662;2023-10-13T07:41:51;98747.13;;;17.35;100.00
56912;BME280;42800;53.928;27.662;2023-10-13T07:44:19;98748.38;;;17.07;100.00
56912;BME280;42800;53.928;27.662;2023-10-13T07:46:50;98732.91;;;16.17;100.00
56912;BME280;42800;53.928;27.662;2023-10-13T07:49:23;98692.69;;;16.09;100.00
56912;BME280;42800;53.928;27.662;2023-10-13T07:51:51;98639.97;;;15.55;100.00
56912;BME280;42800;53.928;27.662;2023-10-13T07:54:23;98682.81;;;15.77;100.00
56912;BME280;42800;53.928;27.662;2023-10-13T07:56:49;98687.78;;;15.48;100.00
56912;BME280;42800;53.928;27.662;2023-10-13T07:59:16;98686.59;;;16.25;100.00
56912;BME280;42800;53.928;27.662;2023-10-13T08:01:42;98722.81;;;16.65;100.00
56912;BME280;42800;53.928;27.662;2023-10-13T08:04:08;98763.56;;;17.46;100.00
56912;BME280;42800;53.928;27.662;2023-10-13T08:06:36;98773.84;;;17.22;100.00
56912;BME280;42800;53.928;27.662;2023-10-13T08:09:03;98799.47;;;18.03;100.00
56912;BME280;42800;53.928;27.662;2023-10-13T08:11:34;98797.72;;;17.90;100.00
56912;BME280;42800;53.928;27.662;2023-10-13T08:14:01;98814.75;;;18.11;100.00
56912;BME280;42800;53.928;27.662;2023-10-13T08:16:36;98779.03;;;17.94;100.00
56912;BME280;42800;53.928;27.662;2023-10-13T08:19:19;98820.59;;;18.17;100.00
56912;BME280;42800;53.928;27.662;2023-10-13T08:21:46;98813.75;;;17.78;100.00
56912;BME280;42800;53.928;27.662;2023-10-13T08:24:17;98812.41;;;17.09;100.00
56912;BME280;42800;53.928;27.662;2023-10-13T08:27:07;98814.00;;;17.87;100.00
56912;BME280;42800;53.928;27.662;2023-10-13T08:29:59;98829.84;;;18.10;100.00
56912;BME280;42800;53.928;27.662;2023-10-13T08:32:51;98829.47;;;18.08;100.00
56912;BME280;42800;53.928;27.662;2023-10-13T08:35:20;98835.75;;;18.32;100.00
56912;BME280;42800;53.928;27.662;2023-10-13T08:38:00;98843.63;;;18.57;100.00
56912;BME280;42800;53.928;27.662;2023-10-13T08:40:29;98853.72;;;18.04;100.00
56912;BME280;42800;53.928;27.662;2023-10-13T08:43:27;98855.09;;;18.60;100.00
56912;BME280;42800;53.928;27.662;2023-10-13T08:46:08;98858.41;;;18.31;100.00
56912;BME280;42800;53.928;27.662;2023-10-13T08:48:35;98858.88;;;18.89;100.00
56912;BME280;42800;53.928;27.662;2023-10-13T08:51:02;98859.09;;;18.98;100.00
56912;BME280;42800;53.928;27.662;2023-10-13T08:53:35;98865.06;;;19.17;100.00
56912;BME280;42800;53.928;27.662;2023-10-13T08:56:11;98890.06;;;19.53;100.00
56912;BME280;42800;53.928;27.662;2023-10-13T08:58:41;98888.31;;;18.87;100.00
56912;BME280;42800;53.928;27.662;2023-10-13T09:01:32;98879.59;;;19.41;100.00
56912;BME280;42800;53.928;27.662;2023-10-13T09:04:06;98889.91;;;19.24;100.00
56912;BME280;42800;53.928;27.662;2023-10-13T09:06:51;98895.81;;;18.66;100.00
56912;BME280;42800;53.928;27.662;2023-10-13T09:09:46;98889.78;;;18.91;100.00
56912;BME280;42800;53.928;27.662;2023-10-13T09:12:26;98899.47;;;18.40;100.00
56912;BME280;42800;53.928;27.662;2023-10-13T09:15:03;98881.53;;;18.88;100.00
56912;BME280;42800;53.928;27.662;2023-10-13T09:17:31;98883.97;;;18.62;100.00
56912;BME280;42800;53.928;27.662;2023-10-13T09:20:01;98883.97;;;17.68;100.00
56912;BME280;42800;53.928;27.662;2023-10-13T09:22:49;98888.50;;;18.09;100.00
56912;BME280;42800;53.928;27.662;2023-10-13T09:25:22;98882.22;;;17.81;100.00
56912;BME280;42800;53.928;27.662;2023-10-13T09:27:48;98886.44;;;18.37;100.00
56912;BME280;42800;53.928;27.662;2023-10-13T09:30:17;98881.53;;;18.44;100.00
56912;BME280;42800;53.928;27.662;2023-10-13T09:32:44;98895.81;;;18.23;100.00
56912;BME280;42800;53.928;27.662;2023-10-13T09:35:17;98894.56;;;18.47;100.00
56912;BME280;42800;53.928;27.662;2023-10-13T09:37:44;98888.31;;;18.87;100.00
56912;BME280;42800;53.928;27.662;2023-10-13T09:40:15;98900.91;;;18.48;100.00
56912;BME280;42800;53.928;27.662;2023-10-13T09:42:59;98897.97;;;18.98;99.06
56912;BME280;42800;53.928;27.662;2023-10-13T09:45:32;98874.22;;;18.10;100.00
56912;BME280;42800;53.928;27.662;2023-10-13T09:48:03;98880.00;;;17.42;100.00
56912;BME280;42800;53.928;27.662;2023-10-13T09:50:36;98889.22;;;17.05;100.00
56912;BME280;42800;53.928;27.662;2023-10-13T09:53:04;98881.16;;;16.87;100.00
56912;BME280;42800;53.928;27.662;2023-10-13T09:55:36;98890.94;;;16.95;100.00
56912;BME280;42800;53.928;27.662;2023-10-13T09:58:06;98869.00;;;16.74;100.00
56912;BME280;42800;53.928;27.662;2023-10-13T10:00:37;98877.50;;;17.24;100.00
56912;BME280;42800;53.928;27.662;2023-10-13T10:03:21;98888.28;;;17.46;100.00
56912;BME280;42800;53.928;27.662;2023-10-13T10:06:05;98883.66;;;17.35;100.00
56912;BME280;42800;53.928;27.662;2023-10-13T10:08:34;98904.94;;;17.42;100.00
56912;BME280;42800;53.928;27.662;2023-10-13T10:14:16;98885.03;;;17.24;100.00
56912;BME280;42800;53.928;27.662;2023-10-13T10:16:53;98890.25;;;17.45;100.00
56912;BME280;42800;53.928;27.662;2023-10-13T10:19:24;98884.88;;;17.34;100.00
56912;BME280;42800;53.928;27.662;2023-10-13T10:22:01;98887.19;;;17.09;100.00
56912;BME280;42800;53.928;27.662;2023-10-13T10:24:29;98890.22;;;16.87;100.00
56912;BME280;42800;53.928;27.662;2023-10-13T10:26:56;98856.38;;;15.97;100.00
56912;BME280;42800;53.928;27.662;2023-10-13T10:29:22;98831.56;;;15.34;100.00
56912;BME280;42800;53.928;27.662;2023-10-13T10:31:48;98852.22;;;15.71;100.00
56912;BME280;42800;53.928;27.662;2023-10-13T10:34:16;98851.16;;;15.54;100.00
56912;BME280;42800;53.928;27.662;2023-10-13T10:36:46;98844.94;;;15.36;100.00
56912;BME280;42800;53.928;27.662;2023-10-13T10:39:13;98836.28;;;15.37;100.00
56912;BME280;42800;53.928;27.662;2023-10-13T10:41:40;98842.97;;;15.40;100.00
56912;BME280;42800;53.928;27.662;2023-10-13T10:44:11;98830.88;;;15.16;100.00
56912;BME280;42800;53.928;27.662;2023-10-13T10:46:52;98804.19;;;14.95;100.00
56912;BME280;42800;53.928;27.662;2023-10-13T10:49:22;98801.47;;;14.84;100.00
56912;BME280;42800;53.928;27.662;2023-10-13T10:51:57;98771.69;;;14.47;100.00
56912;BME280;42800;53.928;27.662;2023-10-13T10:54:25;98783.78;;;14.78;100.00
56912;BME280;42800;53.928;27.662;2023-10-13T10:56:56;98825.81;;;15.07;100.00
56912;BME280;42800;53.928;27.662;2023-10-13T10:59:34;98828.66;;;14.89;100.00
56912;BME280;42800;53.928;27.662;2023-10-13T11:02:03;98821.63;;;14.77;100.00
56912;BME280;42800;53.928;27.662;2023-10-13T11:04:29;98816.53;;;14.65;100.00
56912;BME280;42800;53.928;27.662;2023-10-13T11:06:59;98816.44;;;14.90;100.00
56912;BME280;42800;53.928;27.662;2023-10-13T11:09:26;98816.75;;;14.99;100.00
56912;BME280;42800;53.928;27.662;2023-10-13T11:12:12;98817.97;;;14.98;100.00
56912;BME280;42800;53.928;27.662;2023-10-13T11:14:45;98814.38;;;15.05;100.00
56912;BME280;42800;53.928;27.662;2023-10-13T11:17:19;98811.69;;;14.94;100.00
56912;BME280;42800;53.928;27.662;2023-10-13T11:19:50;98821.56;;;14.88;100.00
56912;BME280;42800;53.928;27.662;2023-10-13T11:22:17;98807.50;;;14.61;100.00
56912;BME280;42800;53.928;27.662;2023-10-13T11:24:57;98801.78;;;15.04;100.00
56912;BME280;42800;53.928;27.662;2023-10-13T11:27:28;98788.88;;;14.83;100.00
56912;BME280;42800;53.928;27.662;2023-10-13T11:30:10;98778.19;;;14.89;100.00
56912;BME280;42800;53.928;27.662;2023-10-13T11:32:40;98817.56;;;15.03;100.00
56912;BME280;42800;53.928;27.662;2023-10-13T11:35:07;98786.78;;;15.01;100.00
56912;BME280;42800;53.928;27.662;2023-10-13T11:37:36;98790.00;;;14.96;100.00
56912;BME280;42800;53.928;27.662;2023-10-13T11:40:04;98783.25;;;15.01;100.00
56912;BME280;42800;53.928;27.662;2023-10-13T11:42:38;98812.16;;;14.75;100.00
56912;BME280;42800;53.928;27.662;2023-10-13T11:45:09;98809.31;;;14.96;100.00
56912;BME280;42800;53.928;27.662;2023-10-13T11:47:54;98807.41;;;14.86;100.00
56912;BME280;42800;53.928;27.662;2023-10-13T11:50:25;98809.03;;;14.76;100.00
56912;BME280;42800;53.928;27.662;2023-10-13T11:52:58;98794.50;;;14.62;100.00
56912;BME280;42800;53.928;27.662;2023-10-13T11:55:24;98791.72;;;14.62;100.00
56912;BME280;42800;53.928;27.662;2023-10-13T11:57:50;98785.84;;;14.49;100.00
56912;BME280;42800;53.928;27.662;2023-10-13T12:00:17;98789.00;;;14.58;100.00
56912;BME280;42800;53.928;27.662;2023-10-13T12:02:52;98765.81;;;14.34;100.00
56912;BME280;42800;53.928;27.662;2023-10-13T12:05:37;98763.41;;;14.36;100.00
56912;BME280;42800;53.928;27.662;2023-10-13T12:08:24;98747.28;;;14.38;100.00
56912;BME280;42800;53.928;27.662;2023-10-13T12:10:58;98762.22;;;14.44;100.00
56912;BME280;42800;53.928;27.662;2023-10-13T12:13:25;98767.75;;;14.41;100.00
56912;BME280;42800;53.928;27.662;2023-10-13T12:15:52;98746.09;;;14.35;100.00
56912;BME280;42800;53.928;27.662;2023-10-13T12:18:22;98732.28;;;14.46;100.00
56912;BME280;42800;53.928;27.662;2023-10-13T12:20:49;98757.53;;;14.38;100.00
56912;BME280;42800;53.928;27.662;2023-10-13T12:23:15;98757.09;;;14.50;100.00
56912;BME280;42800;53.928;27.662;2023-10-13T12:25:43;98747.72;;;14.33;100.00
56912;BME280;42800;53.928;27.662;2023-10-13T12:28:23;98760.97;;;14.70;100.00
56912;BME280;42800;53.928;27.662;2023-10-13T12:30:53;98753.88;;;14.62;100.00
56912;BME280;42800;53.928;27.662;2023-10-13T12:33:19;98742.13;;;14.51;100.00
56912;BME280;42800;53.928;27.662;2023-10-13T12:36:02;98744.47;;;14.59;100.00
56912;BME280;42800;53.928;27.662;2023-10-13T12:38:52;98742.63;;;14.17;100.00
56912;BME280;42800;53.928;27.662;2023-10-13T12:41:36;98714.31;;;14.06;100.00
56912;BME280;42800;53.928;27.662;2023-10-13T12:44:20;98701.44;;;13.71;100.00
56912;BME280;42800;53.928;27.662;2023-10-13T12:47:04;98691.44;;;14.12;100.00
56912;BME280;42800;53.928;27.662;2023-10-13T12:49:48;98700.44;;;14.27;100.00
56912;BME280;42800;53.928;27.662;2023-10-13T12:52:38;98687.47;;;14.21;100.00
56912;BME280;42800;53.928;27.662;2023-10-13T12:55:04;98716.63;;;14.18;100.00
56912;BME280;42800;53.928;27.662;2023-10-13T12:57:35;98669.78;;;14.15;100.00
56912;BME280;42800;53.928;27.662;2023-10-13T13:00:10;98684.38;;;14.08;100.00
56912;BME280;42800;53.928;27.662;2023-10-13T13:02:46;98678.66;;;13.41;100.00
56912;BME280;42800;53.928;27.662;2023-10-13T13:05:12;98670.41;;;13.13;100.00
56912;BME280;42800;53.928;27.662;2023-10-13T13:07:39;98659.78;;;13.47;100.00
56912;BME280;42800;53.928;27.662;2023-10-13T13:10:18;98693.22;;;13.42;100.00
56912;BME280;42800;53.928;27.662;2023-10-13T13:12:44;98675.88;;;13.52;100.00
56912;BME280;42800;53.928;27.662;2023-10-13T13:15:10;98686.44;;;13.75;100.00
56912;BME280;42800;53.928;27.662;2023-10-13T13:17:37;98688.06;;;13.58;100.00
56912;BME280;42800;53.928;27.662;2023-10-13T13:20:05;98677.84;;;13.55;100.00